sensor_id;sensor_type;location;lat;lon;timestamp;pressure;altitude;pressure_sealevel;temperature;humidity
64243;BME280;50573;51.512;5.386;2023-02-12T00:09:09;103597.69;;;7.87;90.82
64243;BME280;50573;51.512;5.386;2023-02-12T00:19:12;103598.78;;;7.86;89.71
64243;BME280;50573;51.512;5.386;2023-02-12T00:29:17;103597.22;;;7.85;90.43
64243;BME280;50573;51.512;5.386;2023-02-12T00:39:20;103597.13;;;7.82;89.75
64243;BME280;50573;51.512;5.386;2023-02-12T00:49:24;103596.25;;;7.78;89.85
64243;BME280;50573;51.512;5.386;2023-02-12T00:59:28;103588.44;;;7.76;89.62
64243;BME280;50573;51.512;5.386;2023-02-12T01:09:32;103594.53;;;7.73;89.68
64243;BME280;50573;51.512;5.386;2023-02-12T01:19:35;103599.88;;;7.70;90.33
64243;BME280;50573;51.512;5.386;2023-02-12T01:29:39;103597.84;;;7.67;90.37
64243;BME280;50573;51.512;5.386;2023-02-12T01:39:45;103593.91;;;7.64;91.05
64243;BME280;50573;51.512;5.386;2023-02-12T01:49:50;103591.88;;;7.61;90.56
64243;BME280;50573;51.512;5.386;2023-02-12T01:59:56;103583.75;;;7.61;90.33
64243;BME280;50573;51.512;5.386;2023-02-12T02:10:03;103574.03;;;7.60;90.52
64243;BME280;50573;51.512;5.386;2023-02-12T02:30:54;103580.13;;;7.57;90.33
64243;BME280;50573;51.512;5.386;2023-02-12T02:41:03;103579.69;;;7.55;90.52
64243;BME280;50573;51.512;5.386;2023-02-12T02:51:13;103578.69;;;7.48;90.68
64243;BME280;50573;51.512;5.386;2023-02-12T03:01:19;103585.34;;;7.50;91.40
64243;BME280;50573;51.512;5.386;2023-02-12T03:11:27;103574.06;;;7.48;91.74
64243;BME280;50573;51.512;5.386;2023-02-12T03:21:36;103568.88;;;7.43;91.59
64243;BME280;50573;51.512;5.386;2023-02-12T03:31:55;103568.41;;;7.41;91.83
64243;BME280;50573;51.512;5.386;2023-02-12T03:42:03;103569.56;;;7.40;91.45
64243;BME280;50573;51.512;5.386;2023-02-12T03:52:09;103560.50;;;7.36;91.09
64243;BME280;50573;51.512;5.386;2023-02-12T04:02:14;103557.81;;;7.36;92.01
64243;BME280;50573;51.512;5.386;2023-02-12T04:12:25;103571.81;;;7.38;91.87
64243;BME280;50573;51.512;5.386;2023-02-12T04:22:43;103579.94;;;7.38;91.87
64243;BME280;50573;51.512;5.386;2023-02-12T04:32:51;103598.25;;;7.41;91.51
64243;BME280;50573;51.512;5.386;2023-02-12T04:42:55;103592.94;;;7.45;91.28
64243;BME280;50573;51.512;5.386;2023-02-12T04:53:00;103593.72;;;7.45;91.81
64243;BME280;50573;51.512;5.386;2023-02-12T05:03:03;103597.13;;;7.42;91.64
64243;BME280;50573;51.512;5.386;2023-02-12T05:13:07;103597.91;;;7.43;91.08
64243;BME280;50573;51.512;5.386;2023-02-12T05:23:10;103596.34;;;7.42;91.04
64243;BME280;50573;51.512;5.386;2023-02-12T05:33:15;103599.38;;;7.40;92.10
64243;BME280;50573;51.512;5.386;2023-02-12T05:43:18;103603.56;;;7.38;92.62
64243;BME280;50573;51.512;5.386;2023-02-12T05:53:22;103602.34;;;7.35;92.53
64243;BME280;50573;51.512;5.386;2023-02-12T06:03:25;103610.81;;;7.34;92.26
64243;BME280;50573;51.512;5.386;2023-02-12T06:13:30;103613.19;;;7.35;92.36
64243;BME280;50573;51.512;5.386;2023-02-12T06:23:33;103614.56;;;7.29;93.12
64243;BME280;50573;51.512;5.386;2023-02-12T06:33:38;103619.50;;;7.27;92.96
64243;BME280;50573;51.512;5.386;2023-02-12T06:43:41;103623.38;;;7.26;93.21
64243;BME280;50573;51.512;5.386;2023-02-12T06:53:46;103633.41;;;7.26;93.27
64243;BME280;50573;51.512;5.386;2023-02-12T07:03:51;103636.13;;;7.26;93.38
64243;BME280;50573;51.512;5.386;2023-02-12T07:13:56;103640.88;;;7.29;93.38
64243;BME280;50573;51.512;5.386;2023-02-12T07:23:59;103642.34;;;7.26;93.32
64243;BME280;50573;51.512;5.386;2023-02-12T07:34:04;103662.66;;;7.32;93.32
64243;BME280;50573;51.512;5.386;2023-02-12T07:44:09;103662.44;;;7.37;92.97
64243;BME280;50573;51.512;5.386;2023-02-12T07:54:15;103667.72;;;7.46;92.69
64243;BME280;50573;51.512;5.386;2023-02-12T08:04:20;103669.09;;;7.52;92.67
64243;BME280;50573;51.512;5.386;2023-02-12T08:14:25;103669.06;;;7.64;92.38
64243;BME280;50573;51.512;5.386;2023-02-12T08:24:28;103670.97;;;7.75;91.99
64243;BME280;50573;51.512;5.386;2023-02-12T08:34:34;103677.94;;;7.88;91.52
64243;BME280;50573;51.512;5.386;2023-02-12T08:44:37;103693.06;;;8.01;89.67
64243;BME280;50573;51.512;5.386;2023-02-12T08:54:42;103698.31;;;8.22;89.69
64243;BME280;50573;51.512;5.386;2023-02-12T09:04:46;103702.69;;;8.38;88.10
64243;BME280;50573;51.512;5.386;2023-02-12T09:14:55;103705.81;;;8.53;87.72
64243;BME280;50573;51.512;5.386;2023-02-12T09:25:02;103707.88;;;8.71;86.52
64243;BME280;50573;51.512;5.386;2023-02-12T09:35:09;103716.47;;;8.73;85.29
64243;BME280;50573;51.512;5.386;2023-02-12T09:45:19;103715.97;;;8.99;85.52
64243;BME280;50573;51.512;5.386;2023-02-12T09:55:30;103719.28;;;9.08;83.52
64243;BME280;50573;51.512;5.386;2023-02-12T10:05:39;103722.81;;;9.24;83.54
64243;BME280;50573;51.512;5.386;2023-02-12T10:15:51;103730.69;;;9.29;83.04
64243;BME280;50573;51.512;5.386;2023-02-12T10:25:58;103730.44;;;9.34;83.32
64243;BME280;50573;51.512;5.386;2023-02-12T10:36:15;103720.19;;;9.43;82.71
64243;BME280;50573;51.512;5.386;2023-02-12T10:46:21;103719.19;;;9.51;82.16
64243;BME280;50573;51.512;5.386;2023-02-12T10:56:26;103724.50;;;9.63;79.98
64243;BME280;50573;51.512;5.386;2023-02-12T11:06:31;103712.81;;;9.78;79.06
64243;BME280;50573;51.512;5.386;2023-02-12T11:16:38;103714.00;;;9.96;78.68
64243;BME280;50573;51.512;5.386;2023-02-12T11:26:43;103698.41;;;10.12;79.12
64243;BME280;50573;51.512;5.386;2023-02-12T11:36:52;103703.28;;;10.22;74.54
64243;BME280;50573;51.512;5.386;2023-02-12T11:46:58;103686.00;;;10.34;76.41
64243;BME280;50573;51.512;5.386;2023-02-12T11:57:06;103684.78;;;10.12;73.50
64243;BME280;50573;51.512;5.386;2023-02-12T12:07:20;103684.78;;;10.31;74.51
64243;BME280;50573;51.512;5.386;2023-02-12T12:17:36;103676.13;;;10.26;72.37
64243;BME280;50573;51.512;5.386;2023-02-12T12:28:04;103667.28;;;10.32;73.21
64243;BME280;50573;51.512;5.386;2023-02-12T12:38:20;103659.88;;;10.33;75.02
64243;BME280;50573;51.512;5.386;2023-02-12T12:48:46;103654.09;;;10.15;76.05
64243;BME280;50573;51.512;5.386;2023-02-12T13:10:02;103624.63;;;10.21;74.57
64243;BME280;50573;51.512;5.386;2023-02-12T13:20:32;103621.69;;;10.10;73.94
64243;BME280;50573;51.512;5.386;2023-02-12T13:30:41;103608.16;;;10.14;74.76
64243;BME280;50573;51.512;5.386;2023-02-12T13:40:48;103611.06;;;10.05;74.96
64243;BME280;50573;51.512;5.386;2023-02-12T13:50:58;103606.06;;;9.88;75.02
64243;BME280;50573;51.512;5.386;2023-02-12T14:01:06;103591.25;;;9.86;75.20
64243;BME280;50573;51.512;5.386;2023-02-12T14:11:12;103587.38;;;9.87;75.32
64243;BME280;50573;51.512;5.386;2023-02-12T14:21:42;103588.28;;;9.94;75.46
64243;BME280;50573;51.512;5.386;2023-02-12T14:31:45;103589.81;;;9.92;74.79
64243;BME280;50573;51.512;5.386;2023-02-12T14:41:51;103580.34;;;9.86;75.78
64243;BME280;50573;51.512;5.386;2023-02-12T14:51:57;103581.97;;;9.71;76.30
64243;BME280;50573;51.512;5.386;2023-02-12T15:02:04;103567.69;;;9.74;76.64
64243;BME280;50573;51.512;5.386;2023-02-12T15:12:14;103563.44;;;9.76;76.58
64243;BME280;50573;51.512;5.386;2023-02-12T15:22:23;103568.25;;;9.64;75.91
64243;BME280;50573;51.512;5.386;2023-02-12T15:32:37;103553.75;;;9.60;77.13
64243;BME280;50573;51.512;5.386;2023-02-12T15:42:52;103546.41;;;9.60;78.00
64243;BME280;50573;51.512;5.386;2023-02-12T15:52:56;103538.50;;;9.55;79.15
64243;BME280;50573;51.512;5.386;2023-02-12T16:03:00;103536.00;;;9.47;79.33
64243;BME280;50573;51.512;5.386;2023-02-12T16:13:03;103546.50;;;9.29;80.89
64243;BME280;50573;51.512;5.386;2023-02-12T16:23:08;103550.22;;;9.21;81.87
64243;BME280;50573;51.512;5.386;2023-02-12T16:33:30;103545.84;;;9.17;82.64
64243;BME280;50573;51.512;5.386;2023-02-12T16:43:35;103546.31;;;9.03;83.53
64243;BME280;50573;51.512;5.386;2023-02-12T16:53:39;103549.03;;;9.03;83.83
64243;BME280;50573;51.512;5.386;2023-02-12T17:03:49;103545.22;;;8.89;84.86
64243;BME280;50573;51.512;5.386;2023-02-12T17:13:53;103544.78;;;8.87;83.80
64243;BME280;50573;51.512;5.386;2023-02-12T17:23:58;103546.38;;;8.88;84.31
64243;BME280;50573;51.512;5.386;2023-02-12T17:34:01;103550.06;;;8.80;84.67
64243;BME280;50573;51.512;5.386;2023-02-12T17:44:06;103563.19;;;8.78;84.78
64243;BME280;50573;51.512;5.386;2023-02-12T17:54:09;103558.75;;;8.70;85.93
64243;BME280;50573;51.512;5.386;2023-02-12T18:04:14;103556.53;;;8.60;86.61
64243;BME280;50573;51.512;5.386;2023-02-12T18:14:17;103547.63;;;8.59;87.14
64243;BME280;50573;51.512;5.386;2023-02-12T18:24:22;103558.81;;;8.58;88.19
64243;BME280;50573;51.512;5.386;2023-02-12T18:34:25;103557.25;;;8.57;87.37
64243;BME280;50573;51.512;5.386;2023-02-12T18:44:29;103563.56;;;8.45;88.82
64243;BME280;50573;51.512;5.386;2023-02-12T18:54:33;103558.47;;;8.43;88.68
64243;BME280;50573;51.512;5.386;2023-02-12T19:04:38;103542.97;;;8.44;88.21
64243;BME280;50573;51.512;5.386;2023-02-12T19:14:41;103545.16;;;8.38;88.60
64243;BME280;50573;51.512;5.386;2023-02-12T19:24:48;103545.94;;;8.39;88.30
64243;BME280;50573;51.512;5.386;2023-02-12T19:34:52;103552.09;;;8.36;88.79
64243;BME280;50573;51.512;5.386;2023-02-12T19:44:56;103547.78;;;8.35;88.79
64243;BME280;50573;51.512;5.386;2023-02-12T19:54:59;103540.94;;;8.25;88.94
64243;BME280;50573;51.512;5.386;2023-02-12T20:05:04;103539.72;;;8.23;88.86
64243;BME280;50573;51.512;5.386;2023-02-12T20:15:08;103546.25;;;8.22;89.81
64243;BME280;50573;51.512;5.386;2023-02-12T20:25:13;103535.47;;;8.10;90.75
64243;BME280;50573;51.512;5.386;2023-02-12T20:35:16;103526.00;;;8.04;91.27
64243;BME280;50573;51.512;5.386;2023-02-12T20:45:21;103533.16;;;7.96;91.76
64243;BME280;50573;51.512;5.386;2023-02-12T20:55:24;103515.09;;;7.88;92.34
64243;BME280;50573;51.512;5.386;2023-02-12T21:05:29;103519.81;;;7.76;93.44
64243;BME280;50573;51.512;5.386;2023-02-12T21:15:32;103524.00;;;7.73;94.22
64243;BME280;50573;51.512;5.386;2023-02-12T21:25:37;103525.03;;;7.69;94.44
64243;BME280;50573;51.512;5.386;2023-02-12T21:35:40;103517.25;;;7.67;94.71
64243;BME280;50573;51.512;5.386;2023-02-12T21:45:50;103519.94;;;7.67;94.84
64243;BME280;50573;51.512;5.386;2023-02-12T21:55:54;103509.69;;;7.61;94.54
64243;BME280;50573;51.512;5.386;2023-02-12T22:06:00;103520.03;;;7.55;94.72
64243;BME280;50573;51.512;5.386;2023-02-12T22:16:07;103520.94;;;7.47;95.49
64243;BME280;50573;51.512;5.386;2023-02-12T22:26:14;103509.19;;;7.43;96.01
64243;BME280;50573;51.512;5.386;2023-02-12T22:36:18;103501.31;;;7.38;95.80
64243;BME280;50573;51.512;5.386;2023-02-12T22:46:23;103497.97;;;7.29;96.64
64243;BME280;50573;51.512;5.386;2023-02-12T22:56:27;103505.19;;;7.25;96.62
64243;BME280;50573;51.512;5.386;2023-02-12T23:06:31;103502.47;;;7.25;97.26
64243;BME280;50573;51.512;5.386;2023-02-12T23:16:35;103497.06;;;7.25;97.29
64243;BME280;50573;51.512;5.386;2023-02-12T23:26:39;103494.56;;;7.20;97.74
64243;BME280;50573;51.512;5.386;2023-02-12T23:36:42;103481.47;;;7.22;97.86
64243;BME280;50573;51.512;5.386;2023-02-12T23:46:47;103479.56;;;7.23;98.19
64243;BME280;50573;51.512;5.386;2023-02-12T23:56:52;103471.31;;;7.19;97.79
